createdAt,value
2022-10-11T00:04:10.960Z,0
2022-10-11T00:09:10.338Z,0
2022-10-11T00:14:10.536Z,0
2022-10-11T00:19:09.414Z,0
2022-10-11T00:24:10.604Z,0
2022-10-11T00:29:07.554Z,0
2022-10-11T00:34:07.631Z,0
2022-10-11T00:39:06.204Z,0
2022-10-11T00:44:05.985Z,0
2022-10-11T00:49:04.403Z,0
2022-10-11T00:54:04.707Z,0
2022-10-11T00:58:23.965Z,0
2022-10-11T01:03:23.638Z,0
2022-10-11T01:08:33.893Z,0
2022-10-11T01:13:33.799Z,0
2022-10-11T01:18:32.981Z,0
2022-10-11T01:23:33.759Z,0
2022-10-11T01:28:30.909Z,0
2022-10-11T01:33:31.292Z,0
2022-10-11T01:38:31.050Z,0
2022-10-11T01:43:30.807Z,0
2022-10-11T01:48:30.524Z,0
2022-10-11T01:53:33.226Z,0
2022-10-11T01:58:29.187Z,0
2022-10-11T01:59:49.608Z,0
2022-10-11T02:04:49.338Z,0
2022-10-11T02:09:48.580Z,0
2022-10-11T02:14:48.059Z,0
2022-10-11T02:19:48.572Z,0
2022-10-11T02:24:47.273Z,0
2022-10-11T02:29:48.341Z,0
2022-10-11T02:34:45.351Z,0
2022-10-11T02:39:45.359Z,0
2022-10-11T02:44:44.318Z,0
2022-10-11T02:49:44.357Z,0
2022-10-11T02:54:42.166Z,0
2022-10-11T02:58:48.932Z,0
2022-10-11T03:03:49.271Z,0
2022-10-11T03:08:50.566Z,0
2022-10-11T03:13:47.544Z,0
2022-10-11T03:18:47.607Z,0
2022-10-11T03:23:46.133Z,0
2022-10-11T03:28:47.066Z,0
2022-10-11T03:33:44.240Z,0
2022-10-11T03:38:45.145Z,0
2022-10-11T03:43:43.906Z,0
2022-10-11T03:48:43.733Z,0
2022-10-11T03:53:42.585Z,0
2022-10-11T03:58:42.089Z,0
2022-10-11T04:03:41.832Z,0
2022-10-11T04:08:41.318Z,0
2022-10-11T04:13:41.597Z,0
2022-10-11T04:18:38.573Z,0
2022-10-11T04:23:38.477Z,0
2022-10-11T04:28:37.827Z,0
2022-10-11T04:33:37.107Z,0
2022-10-11T04:38:35.411Z,0
2022-10-11T04:43:35.802Z,0
2022-10-11T04:48:34.928Z,0
2022-10-11T04:53:35.526Z,0
2022-10-11T04:58:32.922Z,0
2022-10-11T04:59:54.084Z,0
2022-10-11T05:04:53.618Z,0
2022-10-11T05:09:52.803Z,0
2022-10-11T05:14:51.139Z,0
2022-10-11T05:19:50.572Z,0
2022-10-11T05:24:50.858Z,0
2022-10-11T05:29:49.711Z,0
2022-10-11T05:34:49.319Z,0
2022-10-11T05:39:48.905Z,0
2022-10-11T05:44:48.603Z,0
2022-10-11T05:49:47.653Z,0
2022-10-11T05:54:48.477Z,0
2022-10-11T05:58:53.262Z,0
2022-10-11T06:03:53.361Z,0
2022-10-11T06:08:52.371Z,0.01
2022-10-11T06:13:52.171Z,0.01
2022-10-11T06:18:50.545Z,0.01
2022-10-11T06:23:49.655Z,0.01
2022-10-11T06:28:49.269Z,0.02
2022-10-11T06:33:49.576Z,0.02
2022-10-11T06:43:47.009Z,0.02
2022-10-11T06:48:46.663Z,0.02
2022-10-11T06:53:46.396Z,0.03
2022-10-11T06:58:45.256Z,0.03
2022-10-11T07:03:44.377Z,0.04
2022-10-11T07:08:44.731Z,0.05
2022-10-11T07:13:43.906Z,0.06
2022-10-11T07:18:43.872Z,0.06
2022-10-11T07:23:42.998Z,0.06
2022-10-11T07:28:43.580Z,0.06
2022-10-11T07:33:41.917Z,0.07
2022-10-11T07:38:43.502Z,0.08
2022-10-11T07:43:40.710Z,0.08
2022-10-11T07:48:40.043Z,0.08
2022-10-11T07:53:39.224Z,0.08
2022-10-11T07:58:40.126Z,0.09
2022-10-11T08:00:00.143Z,0.09
2022-10-11T08:04:59.820Z,0.09
2022-10-11T08:09:59.314Z,0.09
2022-10-11T08:15:00.089Z,0.11
2022-10-11T08:19:57.285Z,0.1
2022-10-11T08:24:57.184Z,0.09
2022-10-11T08:29:56.565Z,0.08
2022-10-11T08:34:55.615Z,0.09
2022-10-11T08:39:54.064Z,0.1
2022-10-11T08:45:14.311Z,0.12
2022-10-11T08:49:53.370Z,0.13
2022-10-11T08:54:52.775Z,0.14
2022-10-11T08:58:58.303Z,0.14
2022-10-11T09:03:58.588Z,0.15
2022-10-11T09:08:59.368Z,0.15
2022-10-11T09:13:57.391Z,0.15
2022-10-11T09:18:57.895Z,0.16
2022-10-11T09:23:54.732Z,0.17
2022-10-11T09:29:02.464Z,0.17
2022-10-11T09:33:53.872Z,0.16
2022-10-11T09:38:53.788Z,0.16
2022-10-11T09:43:53.177Z,0.17
2022-10-11T09:48:53.438Z,0.23
2022-10-11T09:53:52.316Z,0.27
2022-10-11T09:58:53.545Z,0.3
2022-10-11T10:03:50.960Z,0.37
2022-10-11T10:08:50.655Z,0.28
2022-10-11T10:13:49.519Z,0.31
2022-10-11T10:18:49.101Z,0.34
2022-10-11T10:23:47.767Z,0.39
2022-10-11T10:28:48.272Z,0.38
2022-10-11T10:33:47.817Z,0.32
2022-10-11T10:38:54.313Z,0.38
2022-10-11T10:43:47.171Z,0.35
2022-10-11T10:49:56.227Z,0.39
2022-10-11T10:53:46.736Z,0.38
2022-10-11T10:58:46.344Z,0.36
2022-10-11T11:03:47.181Z,0.37
2022-10-11T11:08:44.689Z,0.39
2022-10-11T11:13:44.490Z,0.38
2022-10-11T11:18:44.938Z,0.25
2022-10-11T11:23:43.576Z,0.25
2022-10-11T11:28:43.761Z,0.24
2022-10-11T11:33:49.982Z,0.18
2022-10-11T11:38:41.420Z,0.16
2022-10-11T11:43:42.879Z,0.16
2022-10-11T11:48:39.140Z,0.14
2022-10-11T11:53:39.233Z,0.14
2022-10-11T11:58:37.340Z,0.15
2022-10-11T11:59:59.266Z,0.15
2022-10-11T12:04:57.759Z,0.15
2022-10-11T12:10:50.965Z,0.15
2022-10-11T12:14:56.669Z,0.15
2022-10-11T12:19:56.831Z,0.15
2022-10-11T12:24:56.399Z,0.16
2022-10-11T12:29:56.086Z,0.15
2022-10-11T12:34:56.385Z,0.18
2022-10-11T12:39:53.578Z,0.16
2022-10-11T12:44:53.498Z,0.16
2022-10-11T12:49:52.433Z,0.13
2022-10-11T12:54:52.416Z,0.15
2022-10-11T12:59:27.415Z,0.18
2022-10-11T13:04:27.082Z,0.17
2022-10-11T13:09:28.339Z,0.19
2022-10-11T13:14:14.276Z,0.19
2022-10-11T13:19:14.491Z,0.19
2022-10-11T13:24:13.713Z,0.17
2022-10-11T13:29:13.464Z,0.14
2022-10-11T13:34:11.369Z,0.14
2022-10-11T13:39:11.351Z,0.15
2022-10-11T13:44:10.996Z,0.15
2022-10-11T13:49:10.361Z,0.16
2022-10-11T13:54:15.975Z,0.16
2022-10-11T13:58:56.083Z,0.19
2022-10-11T14:03:56.323Z,0.18
2022-10-11T14:08:55.810Z,0.16
2022-10-11T14:13:56.366Z,0.14
2022-10-11T14:18:53.607Z,0.11
2022-10-11T14:23:53.276Z,0.1
2022-10-11T14:28:52.700Z,0.07
2022-10-11T14:33:52.401Z,0.04
2022-10-11T14:38:51.316Z,0.04
2022-10-11T14:43:51.429Z,0.04
2022-10-11T14:48:58.963Z,0.04
2022-10-11T14:53:51.343Z,0.05
2022-10-11T14:58:48.201Z,0.05
2022-10-11T15:03:48.281Z,0.05
2022-10-11T15:08:47.270Z,0.05
2022-10-11T15:13:46.759Z,0.05
2022-10-11T15:18:45.077Z,0.05
2022-10-11T15:23:44.647Z,0.04
2022-10-11T15:28:44.805Z,0.04
2022-10-11T15:33:44.020Z,0.03
2022-10-11T15:38:43.458Z,0.03
2022-10-11T15:43:42.860Z,0.03
2022-10-11T15:48:44.319Z,0.02
2022-10-11T15:53:42.416Z,0.02
2022-10-11T15:58:42.675Z,0.02
2022-10-11T16:03:39.234Z,0.01
2022-10-11T16:08:39.480Z,0.01
2022-10-11T16:13:39.607Z,0.01
2022-10-11T16:18:38.677Z,0.01
2022-10-11T16:23:37.838Z,0
2022-10-11T16:33:44.520Z,0
2022-10-11T16:38:41.400Z,0
2022-10-11T16:43:44.526Z,0
2022-10-11T16:48:40.166Z,0
2022-10-11T17:14:55.151Z,0
2022-10-11T17:19:53.585Z,0
2022-10-11T17:24:53.383Z,0
2022-10-11T17:29:52.996Z,0
2022-10-11T17:34:52.526Z,0
2022-10-11T17:39:51.407Z,0
2022-10-11T17:44:52.025Z,0
2022-10-11T17:49:50.609Z,0
2022-10-11T17:54:50.426Z,0
2022-10-11T17:59:12.006Z,0
2022-10-11T18:04:12.056Z,0
2022-10-11T18:09:11.895Z,0
2022-10-11T18:14:11.279Z,0
2022-10-11T18:19:10.228Z,0
2022-10-11T18:24:09.942Z,0
2022-10-11T18:29:09.318Z,0
2022-10-11T18:34:09.049Z,0
2022-10-11T18:39:09.430Z,0
2022-10-11T18:44:06.494Z,0
2022-10-11T18:49:06.503Z,0
2022-10-11T18:54:06.278Z,0
2022-10-11T18:58:52.049Z,0
2022-10-11T19:03:50.383Z,0
2022-10-11T19:08:49.795Z,0
2022-10-11T19:13:50.200Z,0
2022-10-11T19:18:48.798Z,0
2022-10-11T19:23:47.175Z,0
2022-10-11T19:28:47.801Z,0
2022-10-11T19:33:45.975Z,0
2022-10-11T19:38:45.307Z,0
2022-10-11T19:43:44.942Z,0
2022-10-11T19:48:44.786Z,0
2022-10-11T19:53:44.920Z,0
2022-10-11T19:58:43.362Z,0
2022-10-11T20:00:04.552Z,0
2022-10-11T20:05:04.513Z,0
2022-10-11T20:10:04.154Z,0
2022-10-11T20:15:03.915Z,0
2022-10-11T20:20:04.339Z,0
2022-10-11T20:25:01.271Z,0
2022-10-11T20:30:01.156Z,0
2022-10-11T20:34:59.813Z,0
2022-10-11T20:39:59.631Z,0
2022-10-11T20:44:58.027Z,0
2022-10-11T20:49:57.857Z,0
2022-10-11T20:54:57.614Z,0
2022-10-11T20:59:30.432Z,0
2022-10-11T21:04:27.727Z,0
2022-10-11T21:09:27.309Z,0
2022-10-11T21:14:28.219Z,0
2022-10-11T21:19:14.253Z,0
2022-10-11T21:24:14.426Z,0
2022-10-11T21:29:13.638Z,0
2022-10-11T21:34:13.151Z,0
2022-10-11T21:39:11.345Z,0
2022-10-11T21:44:10.794Z,0
2022-10-11T21:49:10.580Z,0
2022-10-11T21:54:10.054Z,0
2022-10-11T21:58:57.253Z,0
2022-10-11T22:03:57.257Z,0
2022-10-11T22:08:57.088Z,0
2022-10-11T22:13:56.037Z,0
2022-10-11T22:18:56.384Z,0
2022-10-11T22:23:53.653Z,0
2022-10-11T22:28:54.264Z,0
2022-10-11T22:33:52.590Z,0
2022-10-11T22:38:52.512Z,0
2022-10-11T22:43:52.043Z,0
2022-10-11T22:48:52.254Z,0
2022-10-11T22:53:51.228Z,0
2022-10-11T22:58:52.360Z,0
2022-10-11T23:03:49.968Z,0
2022-10-11T23:08:48.905Z,0
2022-10-11T23:13:48.495Z,0
2022-10-11T23:18:48.459Z,0
2022-10-11T23:23:46.225Z,0
2022-10-11T23:28:47.606Z,0
2022-10-11T23:33:46.761Z,0
2022-10-11T23:38:45.843Z,0
2022-10-11T23:43:44.477Z,0
2022-10-11T23:48:44.428Z,0
2022-10-11T23:53:43.794Z,0
2022-10-11T23:58:43.224Z,0
